createdAt,value
2017-08-21T00:00:46.692Z,14.30
2017-08-21T00:03:14.939Z,14.20
2017-08-21T00:05:43.167Z,14.10
2017-08-21T00:08:10.848Z,14.10
2017-08-21T00:10:39.067Z,14.00
2017-08-21T00:13:06.529Z,14.00
2017-08-21T00:15:34.084Z,14.00
2017-08-21T00:18:02.348Z,13.90
2017-08-21T00:20:31.136Z,13.80
2017-08-21T00:22:58.605Z,13.80
2017-08-21T00:25:26.064Z,13.80
2017-08-21T00:27:53.517Z,13.80
2017-08-21T00:30:21.091Z,13.80
2017-08-21T00:32:49.316Z,13.70
2017-08-21T00:35:16.791Z,13.60
2017-08-21T00:37:45.039Z,13.60
2017-08-21T00:40:12.592Z,13.60
2017-08-21T00:42:40.856Z,13.60
2017-08-21T00:45:09.119Z,13.50
2017-08-21T00:47:37.488Z,13.40
2017-08-21T00:50:05.713Z,13.40
2017-08-21T00:52:33.179Z,13.30
2017-08-21T00:55:01.407Z,13.30
2017-08-21T00:57:28.985Z,13.30
2017-08-21T00:59:57.243Z,13.30
2017-08-21T01:02:25.499Z,13.20
2017-08-21T01:04:53.043Z,13.20
2017-08-21T01:07:20.592Z,13.20
2017-08-21T01:09:48.051Z,13.10
2017-08-21T01:12:15.575Z,13.10
2017-08-21T01:14:43.042Z,13.10
2017-08-21T01:17:11.283Z,13.00
2017-08-21T01:19:39.536Z,12.90
2017-08-21T01:22:07.088Z,12.90
2017-08-21T01:24:35.348Z,12.80
2017-08-21T01:27:03.708Z,12.80
2017-08-21T01:29:31.967Z,12.70
2017-08-21T01:32:00.231Z,12.70
2017-08-21T01:34:28.477Z,12.60
2017-08-21T01:36:56.040Z,12.60
2017-08-21T01:39:24.264Z,12.60
2017-08-21T01:41:51.840Z,12.60
2017-08-21T01:44:20.072Z,12.60
2017-08-21T01:46:47.544Z,12.50
2017-08-21T01:49:15.774Z,12.50
2017-08-21T01:51:43.255Z,12.50
2017-08-21T01:54:10.788Z,12.50
2017-08-21T01:56:39.047Z,12.40
2017-08-21T01:59:07.287Z,12.40
2017-08-21T02:01:34.848Z,12.40
2017-08-21T02:04:03.089Z,12.40
2017-08-21T02:06:30.551Z,12.40
2017-08-21T02:08:58.915Z,12.30
2017-08-21T02:11:27.176Z,12.40
2017-08-21T02:13:55.431Z,12.40
2017-08-21T02:16:22.956Z,12.30
2017-08-21T02:18:51.324Z,12.30
2017-08-21T02:21:19.587Z,12.30
2017-08-21T02:23:47.845Z,12.30
2017-08-21T02:26:16.076Z,12.30
2017-08-21T02:28:43.639Z,12.30
2017-08-21T02:31:11.914Z,12.20
2017-08-21T02:33:39.383Z,12.20
2017-08-21T02:36:06.879Z,12.20
2017-08-21T02:38:45.236Z,12.20
2017-08-21T02:41:12.828Z,12.20
2017-08-21T02:43:40.372Z,12.10
2017-08-21T02:46:08.632Z,12.10
2017-08-21T02:48:36.996Z,12.00
2017-08-21T02:51:05.256Z,12.00
2017-08-21T02:53:33.511Z,12.00
2017-08-21T02:56:01.782Z,11.90
2017-08-21T02:58:30.120Z,11.90
2017-08-21T03:00:57.596Z,11.90
2017-08-21T03:03:25.323Z,11.90
2017-08-21T03:05:53.589Z,11.80
2017-08-21T03:08:22.345Z,11.70
2017-08-21T03:10:50.009Z,11.70
2017-08-21T03:13:17.547Z,11.70
2017-08-21T03:15:45.016Z,11.60
2017-08-21T03:18:12.500Z,11.60
2017-08-21T03:20:40.063Z,11.60
2017-08-21T03:23:08.324Z,11.50
2017-08-21T03:25:36.683Z,11.50
2017-08-21T03:28:04.916Z,11.50
2017-08-21T03:30:32.381Z,11.50
2017-08-21T03:33:00.647Z,11.50
2017-08-21T03:35:28.915Z,11.50
2017-08-21T03:37:57.168Z,11.40
2017-08-21T03:40:25.423Z,11.40
2017-08-21T03:42:52.974Z,11.40
2017-08-21T03:45:21.200Z,11.40
2017-08-21T03:47:48.776Z,11.40
2017-08-21T03:50:17.029Z,11.40
2017-08-21T03:52:45.300Z,11.40
2017-08-21T03:55:13.561Z,11.40
2017-08-21T03:57:41.820Z,11.40
2017-08-21T04:00:10.079Z,11.40
2017-08-21T04:02:38.336Z,11.40
2017-08-21T04:05:06.595Z,11.40
2017-08-21T04:07:34.857Z,11.30
2017-08-21T04:10:03.120Z,11.30
2017-08-21T04:12:31.379Z,11.30
2017-08-21T04:14:59.640Z,11.40
2017-08-21T04:17:27.880Z,11.30
2017-08-21T04:19:55.443Z,11.30
2017-08-21T04:22:23.907Z,11.30
2017-08-21T04:24:52.139Z,11.30
2017-08-21T04:27:19.619Z,11.30
2017-08-21T04:29:47.174Z,11.30
2017-08-21T04:32:14.699Z,11.30
2017-08-21T04:34:42.956Z,11.30
2017-08-21T04:37:11.313Z,11.30
2017-08-21T04:39:39.584Z,11.30
2017-08-21T04:42:07.816Z,11.30
2017-08-21T04:44:35.440Z,11.30
2017-08-21T04:47:02.928Z,11.40
2017-08-21T04:49:31.160Z,11.40
2017-08-21T04:51:58.732Z,11.40
2017-08-21T04:54:26.968Z,11.50
2017-08-21T04:56:54.539Z,11.50
2017-08-21T04:59:23.000Z,11.50
2017-08-21T05:01:50.464Z,11.50
2017-08-21T05:04:17.939Z,11.50
2017-08-21T05:06:45.633Z,11.50
2017-08-21T05:09:13.859Z,11.60
2017-08-21T05:11:41.327Z,11.50
2017-08-21T05:14:09.051Z,11.60
2017-08-21T05:16:36.624Z,11.60
2017-08-21T05:19:04.851Z,11.60
2017-08-21T05:21:32.433Z,11.60
2017-08-21T05:24:00.684Z,11.70
2017-08-21T05:26:28.947Z,11.70
2017-08-21T05:28:57.207Z,11.70
2017-08-21T05:31:25.468Z,11.70
2017-08-21T05:33:53.723Z,11.70
2017-08-21T05:36:21.275Z,11.70
2017-08-21T05:38:49.512Z,11.90
2017-08-21T05:41:17.071Z,11.80
2017-08-21T05:43:45.404Z,12.00
2017-08-21T05:46:12.876Z,11.90
2017-08-21T05:48:41.108Z,12.00
2017-08-21T05:51:08.608Z,12.10
2017-08-21T05:53:36.131Z,12.10
2017-08-21T05:56:03.664Z,12.20
2017-08-21T05:58:32.127Z,12.30
2017-08-21T06:01:00.387Z,12.40
2017-08-21T06:03:28.660Z,12.40
2017-08-21T06:05:56.915Z,12.40
2017-08-21T06:08:25.152Z,12.50
2017-08-21T06:10:52.648Z,12.40
2017-08-21T06:13:20.155Z,12.50
2017-08-21T06:15:48.415Z,12.50
2017-08-21T06:18:16.667Z,12.50
2017-08-21T06:20:44.944Z,12.50
2017-08-21T06:23:13.171Z,12.60
2017-08-21T06:25:40.798Z,12.50
2017-08-21T06:28:08.291Z,12.60
2017-08-21T06:30:35.832Z,12.60
2017-08-21T06:33:04.087Z,12.70
2017-08-21T06:35:31.633Z,12.70
2017-08-21T06:37:59.859Z,12.90
2017-08-21T06:40:27.338Z,12.90
2017-08-21T06:42:55.591Z,13.10
2017-08-21T06:45:23.828Z,13.10
2017-08-21T06:47:51.484Z,13.10
2017-08-21T06:50:18.947Z,13.20
2017-08-21T06:52:47.203Z,13.30
2017-08-21T06:55:15.683Z,13.40
2017-08-21T06:57:43.144Z,13.40
2017-08-21T07:00:10.652Z,13.40
2017-08-21T07:02:38.890Z,13.60
2017-08-21T07:05:06.457Z,13.60
2017-08-21T07:07:34.711Z,13.80
2017-08-21T07:10:02.940Z,13.90
2017-08-21T07:12:30.405Z,13.90
2017-08-21T07:14:58.820Z,13.90
2017-08-21T07:17:26.326Z,13.90
2017-08-21T07:19:53.864Z,14.00
2017-08-21T07:22:22.132Z,14.30
2017-08-21T07:24:50.390Z,14.30
2017-08-21T07:27:18.648Z,14.40
2017-08-21T07:29:46.962Z,14.50
2017-08-21T07:32:14.452Z,14.50
2017-08-21T07:34:42.718Z,14.70
2017-08-21T07:37:10.935Z,14.80
2017-08-21T07:39:38.411Z,14.80
2017-08-21T07:42:06.772Z,15.00
2017-08-21T07:44:35.001Z,15.10
2017-08-21T07:47:02.474Z,15.00
2017-08-21T07:49:30.711Z,15.20
2017-08-21T07:51:58.184Z,15.20
2017-08-21T07:54:26.447Z,15.40
2017-08-21T07:56:53.975Z,15.30
2017-08-21T07:59:22.236Z,15.40
2017-08-21T08:01:50.463Z,15.50
2017-08-21T08:04:18.037Z,15.50
2017-08-21T08:06:46.298Z,15.70
2017-08-21T08:09:14.563Z,15.80
2017-08-21T08:11:42.823Z,15.90
2017-08-21T08:14:11.083Z,16.00
2017-08-21T08:16:39.340Z,16.10
2017-08-21T08:19:07.589Z,16.20
2017-08-21T08:21:35.044Z,16.20
2017-08-21T08:24:03.304Z,16.20
2017-08-21T08:26:31.556Z,16.20
2017-08-21T08:28:59.825Z,16.40
2017-08-21T08:31:28.084Z,16.40
2017-08-21T08:33:56.444Z,16.50
2017-08-21T08:36:23.904Z,16.50
2017-08-21T08:38:51.372Z,16.60
2017-08-21T08:41:18.847Z,16.70
2017-08-21T08:43:46.311Z,16.80
2017-08-21T08:46:14.540Z,17.10
2017-08-21T08:48:42.008Z,17.10
2017-08-21T08:51:09.463Z,17.30
2017-08-21T08:53:37.204Z,17.50
2017-08-21T08:56:05.459Z,17.70
2017-08-21T08:58:33.688Z,17.90
2017-08-21T09:01:01.370Z,17.80
2017-08-21T09:03:28.830Z,18.00
2017-08-21T09:05:56.287Z,18.10
2017-08-21T09:08:24.000Z,18.30
2017-08-21T09:10:52.239Z,18.30
2017-08-21T09:13:19.696Z,18.20
2017-08-21T09:15:47.306Z,18.30
2017-08-21T09:18:14.787Z,18.40
2017-08-21T09:20:43.052Z,19.10
2017-08-21T09:23:11.311Z,19.30
2017-08-21T09:25:39.572Z,19.50
2017-08-21T09:28:07.827Z,19.50
2017-08-21T09:30:36.076Z,19.60
2017-08-21T09:33:03.632Z,19.60
2017-08-21T09:35:31.900Z,19.80
2017-08-21T09:38:00.157Z,19.90
2017-08-21T09:40:28.412Z,20.00
2017-08-21T09:42:56.680Z,20.20
2017-08-21T09:45:24.220Z,20.20
2017-08-21T09:47:51.702Z,20.20
2017-08-21T09:50:19.204Z,20.10
2017-08-21T09:52:46.961Z,20.10
2017-08-21T09:55:14.495Z,20.20
2017-08-21T09:57:42.040Z,20.50
2017-08-21T10:00:09.515Z,20.50
2017-08-21T10:03:04.464Z,20.30
2017-08-21T10:05:31.928Z,20.30
2017-08-21T10:07:59.404Z,20.30
2017-08-21T10:10:26.860Z,20.70
2017-08-21T10:12:54.383Z,20.80
2017-08-21T10:15:21.927Z,21.10
2017-08-21T10:17:49.473Z,20.90
2017-08-21T10:20:17.017Z,20.90
2017-08-21T10:22:44.483Z,21.00
2017-08-21T10:25:11.932Z,21.10
2017-08-21T10:27:39.383Z,21.30
2017-08-21T10:30:06.888Z,21.00
2017-08-21T10:32:34.432Z,21.00
2017-08-21T10:35:01.968Z,21.10
2017-08-21T10:37:29.512Z,21.20
2017-08-21T10:39:57.056Z,21.40
2017-08-21T10:42:24.499Z,21.50
2017-08-21T10:44:52.035Z,21.40
2017-08-21T10:47:19.575Z,21.10
2017-08-21T10:49:47.023Z,21.20
2017-08-21T10:52:14.496Z,21.40
2017-08-21T10:54:41.936Z,21.50
2017-08-21T10:57:09.456Z,21.70
2017-08-21T10:59:37.000Z,21.50
2017-08-21T11:02:06.720Z,21.30
2017-08-21T11:04:35.397Z,21.30
2017-08-21T11:07:04.680Z,21.40
2017-08-21T11:09:32.856Z,21.50
2017-08-21T11:12:06.912Z,21.50
2017-08-21T11:14:34.438Z,21.80
2017-08-21T11:17:01.932Z,21.80
2017-08-21T11:19:29.425Z,21.90
2017-08-21T11:21:56.884Z,21.90
2017-08-21T11:24:24.348Z,22.10
2017-08-21T11:26:51.893Z,22.40
2017-08-21T11:29:19.435Z,22.50
2017-08-21T11:31:46.903Z,23.30
2017-08-21T11:34:14.419Z,23.70
2017-08-21T11:36:41.959Z,24.80
2017-08-21T11:39:09.407Z,26.10
2017-08-21T11:41:37.329Z,26.30
2017-08-21T11:44:04.904Z,26.30
2017-08-21T11:46:32.360Z,25.90
2017-08-21T11:48:59.891Z,25.60
2017-08-21T11:51:27.428Z,25.60
2017-08-21T11:53:54.901Z,25.70
2017-08-21T11:56:22.416Z,25.50
2017-08-21T11:58:49.956Z,25.00
2017-08-21T12:01:17.504Z,24.60
2017-08-21T12:03:44.971Z,24.40
2017-08-21T12:06:12.423Z,24.20
2017-08-21T12:08:39.877Z,24.30
2017-08-21T12:11:07.452Z,24.80
2017-08-21T12:13:34.916Z,25.10
2017-08-21T12:16:02.455Z,25.10
2017-08-21T12:18:30.096Z,25.90
2017-08-21T12:20:57.656Z,26.80
2017-08-21T12:23:25.194Z,27.50
2017-08-21T12:25:52.935Z,27.90
2017-08-21T12:28:20.400Z,28.30
2017-08-21T12:30:47.919Z,28.40
2017-08-21T12:33:15.407Z,27.60
2017-08-21T12:35:42.857Z,27.40
2017-08-21T12:38:10.343Z,27.00
2017-08-21T12:40:37.827Z,27.10
2017-08-21T12:43:05.341Z,28.50
2017-08-21T12:45:32.787Z,29.30
2017-08-21T12:48:00.315Z,29.50
2017-08-21T12:50:27.772Z,30.30
2017-08-21T12:52:55.302Z,30.00
2017-08-21T12:55:22.843Z,29.50
2017-08-21T12:57:50.295Z,29.60
2017-08-21T13:00:17.828Z,29.70
2017-08-21T13:02:45.296Z,30.30
2017-08-21T13:05:12.747Z,31.20
2017-08-21T13:07:40.310Z,31.70
2017-08-21T13:10:07.780Z,32.70
2017-08-21T13:12:35.236Z,32.10
2017-08-21T13:15:02.689Z,32.90
2017-08-21T13:17:30.223Z,33.50
2017-08-21T13:19:57.768Z,32.70
2017-08-21T13:22:25.244Z,31.30
2017-08-21T13:24:52.696Z,30.50
2017-08-21T13:27:20.148Z,30.00
2017-08-21T13:29:47.653Z,29.20
2017-08-21T13:32:15.103Z,28.60
2017-08-21T13:34:42.616Z,29.00
2017-08-21T13:37:10.160Z,30.40
2017-08-21T13:39:37.659Z,32.20
2017-08-21T13:42:05.150Z,33.60
2017-08-21T13:44:32.700Z,34.20
2017-08-21T13:47:00.167Z,34.60
2017-08-21T13:49:27.812Z,34.20
2017-08-21T13:51:55.264Z,34.70
2017-08-21T13:54:22.759Z,35.00
2017-08-21T13:56:50.511Z,35.60
2017-08-21T13:59:18.051Z,34.70
2017-08-21T14:01:45.500Z,34.50
2017-08-21T14:04:13.239Z,35.10
2017-08-21T14:06:40.716Z,35.50
2017-08-21T14:09:08.172Z,36.20
2017-08-21T14:11:35.672Z,36.60
2017-08-21T14:14:03.222Z,36.30
2017-08-21T14:16:30.762Z,36.60
2017-08-21T14:18:58.236Z,37.20
2017-08-21T14:21:25.690Z,37.10
2017-08-21T14:23:53.179Z,36.10
2017-08-21T14:26:20.828Z,35.60
2017-08-21T14:28:48.287Z,34.10
2017-08-21T14:31:15.813Z,33.50
2017-08-21T14:33:43.353Z,33.20
2017-08-21T14:36:10.896Z,33.50
2017-08-21T14:38:38.443Z,33.70
2017-08-21T14:41:06.083Z,33.40
2017-08-21T14:43:33.539Z,34.10
2017-08-21T14:46:01.073Z,33.50
2017-08-21T14:48:28.715Z,33.70
2017-08-21T14:50:56.179Z,34.30
2017-08-21T14:53:23.632Z,34.20
2017-08-21T14:55:51.147Z,34.00
2017-08-21T14:58:18.600Z,33.80
2017-08-21T15:00:46.128Z,33.30
2017-08-21T15:03:13.674Z,33.80
2017-08-21T15:05:41.128Z,34.10
2017-08-21T15:08:08.656Z,34.60
2017-08-21T15:10:36.164Z,34.70
2017-08-21T15:13:03.640Z,34.30
2017-08-21T15:15:31.096Z,33.70
2017-08-21T15:17:58.624Z,33.70
2017-08-21T15:20:26.079Z,33.70
2017-08-21T15:22:53.611Z,33.20
2017-08-21T15:25:21.151Z,32.30
2017-08-21T15:27:48.698Z,31.90
2017-08-21T15:30:16.153Z,31.50
2017-08-21T15:32:43.680Z,31.30
2017-08-21T15:35:11.228Z,30.90
2017-08-21T15:37:38.679Z,30.60
2017-08-21T15:40:06.207Z,30.20
2017-08-21T15:42:33.659Z,29.60
2017-08-21T15:45:01.116Z,29.40
2017-08-21T15:47:28.641Z,29.70
2017-08-21T15:49:56.179Z,30.30
2017-08-21T15:52:23.723Z,31.00
2017-08-21T15:54:51.263Z,31.30
2017-08-21T15:57:18.712Z,31.20
2017-08-21T15:59:46.176Z,30.60
2017-08-21T16:02:13.632Z,30.30
2017-08-21T16:04:41.132Z,29.90
2017-08-21T16:07:08.603Z,29.50
2017-08-21T16:09:36.047Z,29.30
2017-08-21T16:12:03.503Z,29.40
2017-08-21T16:14:30.955Z,29.40
2017-08-21T16:16:58.439Z,29.40
2017-08-21T16:19:25.919Z,29.20
2017-08-21T16:21:53.423Z,28.90
2017-08-21T16:24:20.872Z,28.60
2017-08-21T16:26:48.371Z,28.50
2017-08-21T16:29:15.828Z,28.80
2017-08-21T16:31:43.299Z,29.30
2017-08-21T16:34:10.764Z,30.10
2017-08-21T16:36:38.280Z,30.90
2017-08-21T16:39:05.736Z,31.70
2017-08-21T16:41:33.243Z,32.20
2017-08-21T16:44:00.783Z,31.70
2017-08-21T16:46:28.343Z,31.30
2017-08-21T16:48:55.880Z,30.70
2017-08-21T16:51:23.425Z,30.40
2017-08-21T16:53:50.965Z,30.40
2017-08-21T16:56:18.708Z,30.70
2017-08-21T16:58:46.156Z,30.90
2017-08-21T17:01:13.697Z,31.10
2017-08-21T17:03:41.235Z,31.00
2017-08-21T17:06:08.780Z,30.60
2017-08-21T17:08:36.260Z,30.20
2017-08-21T17:11:03.709Z,29.60
2017-08-21T17:13:31.204Z,29.10
2017-08-21T17:15:58.688Z,28.60
2017-08-21T17:18:26.215Z,28.30
2017-08-21T17:20:53.663Z,27.90
2017-08-21T17:23:21.374Z,27.60
2017-08-21T17:25:48.829Z,27.20
2017-08-21T17:28:16.363Z,26.90
2017-08-21T17:30:43.911Z,26.60
2017-08-21T17:33:11.453Z,26.40
2017-08-21T17:35:38.904Z,26.10
2017-08-21T17:38:06.367Z,25.90
2017-08-21T17:40:33.819Z,25.70
2017-08-21T17:43:01.263Z,25.50
2017-08-21T17:45:28.747Z,25.30
2017-08-21T17:47:56.195Z,25.20
2017-08-21T17:50:23.673Z,25.00
2017-08-21T17:52:51.200Z,24.80
2017-08-21T17:55:18.651Z,24.80
2017-08-21T17:57:46.196Z,24.60
2017-08-21T18:00:13.823Z,24.50
2017-08-21T18:02:41.480Z,24.30
2017-08-21T18:05:08.936Z,24.10
2017-08-21T18:07:36.424Z,24.00
2017-08-21T18:10:03.906Z,23.80
2017-08-21T18:12:31.359Z,23.60
2017-08-21T18:14:58.807Z,23.40
2017-08-21T18:17:26.271Z,23.20
2017-08-21T18:19:53.740Z,23.10
2017-08-21T18:22:21.198Z,22.90
2017-08-21T18:24:48.836Z,22.60
2017-08-21T18:27:16.315Z,22.50
2017-08-21T18:29:43.839Z,22.30
2017-08-21T18:32:11.292Z,22.20
2017-08-21T18:34:38.768Z,22.00
2017-08-21T18:37:06.226Z,21.80
2017-08-21T18:39:33.680Z,21.60
2017-08-21T18:42:01.161Z,21.40
2017-08-21T18:44:28.613Z,21.20
2017-08-21T18:46:56.083Z,21.00
2017-08-21T18:49:23.552Z,20.90
2017-08-21T18:51:51.071Z,20.80
2017-08-21T18:54:18.530Z,20.70
2017-08-21T18:56:46.268Z,20.60
2017-08-21T18:59:13.720Z,20.50
2017-08-21T19:01:41.160Z,20.40
2017-08-21T19:04:08.624Z,20.30
2017-08-21T19:06:36.080Z,20.20
2017-08-21T19:09:03.544Z,20.00
2017-08-21T19:11:31.016Z,19.90
2017-08-21T19:13:58.469Z,19.80
2017-08-21T19:16:25.951Z,19.70
2017-08-21T19:18:53.440Z,19.70
2017-08-21T19:21:21.085Z,19.50
2017-08-21T19:23:48.555Z,19.40
2017-08-21T19:26:16.004Z,19.40
2017-08-21T19:28:43.456Z,19.30
2017-08-21T19:31:10.956Z,19.20
2017-08-21T19:33:38.473Z,19.10
2017-08-21T19:36:06.035Z,19.00
2017-08-21T19:38:33.479Z,19.00
2017-08-21T19:41:01.020Z,18.90
2017-08-21T19:43:28.764Z,18.90
2017-08-21T19:45:56.321Z,18.80
2017-08-21T19:48:23.775Z,18.70
2017-08-21T19:50:51.301Z,18.70
2017-08-21T19:53:18.752Z,18.60
2017-08-21T19:55:46.216Z,18.60
2017-08-21T19:58:13.728Z,18.60
2017-08-21T20:00:41.267Z,18.50
2017-08-21T20:03:08.725Z,18.50
2017-08-21T20:05:37.461Z,18.40
2017-08-21T20:08:04.921Z,18.40
2017-08-21T20:10:32.421Z,18.30
2017-08-21T20:12:59.912Z,18.30
2017-08-21T20:15:27.463Z,18.20
2017-08-21T20:17:55.007Z,18.10
2017-08-21T20:20:22.482Z,18.00
2017-08-21T20:22:49.928Z,18.00
2017-08-21T20:25:18.285Z,17.90
2017-08-21T20:27:45.784Z,17.90
2017-08-21T20:30:13.239Z,17.80
2017-08-21T20:32:40.695Z,17.70
2017-08-21T20:35:08.216Z,17.70
2017-08-21T20:37:35.668Z,17.60
2017-08-21T20:40:03.192Z,17.60
2017-08-21T20:42:30.747Z,17.50
2017-08-21T20:44:58.203Z,17.50
2017-08-21T20:47:25.666Z,17.50
2017-08-21T20:49:53.385Z,17.40
2017-08-21T20:52:20.841Z,17.30
2017-08-21T20:54:48.332Z,17.30
2017-08-21T20:57:15.995Z,17.30
2017-08-21T20:59:43.451Z,17.30
2017-08-21T21:02:10.908Z,17.30
2017-08-21T21:04:38.435Z,17.20
2017-08-21T21:07:05.907Z,17.20
2017-08-21T21:09:33.361Z,17.10
2017-08-21T21:12:01.048Z,17.00
2017-08-21T21:14:28.512Z,16.90
2017-08-21T21:16:55.969Z,16.90
2017-08-21T21:19:23.503Z,16.90
2017-08-21T21:21:51.128Z,16.80
2017-08-21T21:24:18.608Z,16.70
2017-08-21T21:26:46.077Z,16.70
2017-08-21T21:29:13.551Z,16.70
2017-08-21T21:31:41.095Z,16.60
2017-08-21T21:34:08.551Z,16.50
2017-08-21T21:36:36.080Z,16.50
2017-08-21T21:39:03.720Z,16.40
2017-08-21T21:41:31.177Z,16.40
2017-08-21T21:43:58.703Z,16.40
2017-08-21T21:46:26.352Z,16.30
2017-08-21T21:48:53.897Z,16.30
2017-08-21T21:51:21.355Z,16.20
2017-08-21T21:53:49.088Z,16.20
2017-08-21T21:56:16.539Z,16.20
2017-08-21T21:58:44.000Z,16.10
2017-08-21T22:01:11.539Z,16.10
2017-08-21T22:03:38.999Z,16.00
2017-08-21T22:06:06.477Z,16.00
2017-08-21T22:08:34.139Z,15.90
2017-08-21T22:11:01.658Z,15.90
2017-08-21T22:13:29.126Z,15.90
2017-08-21T22:15:56.683Z,15.80
2017-08-21T22:18:24.218Z,15.80
2017-08-21T22:20:51.780Z,15.80
2017-08-21T22:23:19.299Z,15.80
2017-08-21T22:25:46.844Z,15.80
2017-08-21T22:28:14.392Z,15.80
2017-08-21T22:30:42.032Z,15.70
2017-08-21T22:33:09.575Z,15.70
2017-08-21T22:35:37.032Z,15.70
2017-08-21T22:38:04.712Z,15.70
2017-08-21T22:40:32.171Z,15.60
2017-08-21T22:42:59.672Z,15.60
2017-08-21T22:45:27.191Z,15.60
2017-08-21T22:47:54.659Z,15.50
2017-08-21T22:50:22.116Z,15.50
2017-08-21T22:52:49.636Z,15.40
2017-08-21T22:55:17.105Z,15.40
2017-08-21T22:57:44.563Z,15.40
2017-08-21T23:00:12.243Z,15.30
2017-08-21T23:02:39.791Z,15.30
2017-08-21T23:05:07.335Z,15.30
2017-08-21T23:07:35.087Z,15.30
2017-08-21T23:10:02.548Z,15.30
2017-08-21T23:12:30.004Z,15.20
2017-08-21T23:14:57.479Z,15.20
2017-08-21T23:17:24.943Z,15.20
2017-08-21T23:19:52.403Z,15.10
2017-08-21T23:22:20.135Z,15.10
2017-08-21T23:24:47.597Z,15.10
2017-08-21T23:27:15.125Z,15.00
2017-08-21T23:29:42.588Z,15.00
2017-08-21T23:32:10.047Z,15.00
2017-08-21T23:34:37.551Z,15.00
2017-08-21T23:37:05.084Z,15.00
2017-08-21T23:39:32.548Z,14.90
2017-08-21T23:42:00.199Z,15.00
2017-08-21T23:44:27.656Z,14.90
2017-08-21T23:46:55.163Z,14.90
2017-08-21T23:49:22.657Z,14.90
2017-08-21T23:51:50.117Z,14.80
2017-08-21T23:54:17.567Z,14.80
2017-08-21T23:56:45.135Z,14.80
2017-08-21T23:59:12.691Z,14.80
